createdAt,value
2022-12-08T00:01:27.218Z,3.85
2022-12-08T00:03:54.626Z,3.84
2022-12-08T00:06:54.213Z,3.78
2022-12-08T00:09:32.072Z,3.87
2022-12-08T00:12:05.185Z,3.96
2022-12-08T00:14:37.162Z,3.96
2022-12-08T00:17:06.991Z,3.92
2022-12-08T00:19:34.075Z,3.93
2022-12-08T00:22:00.709Z,3.95
2022-12-08T00:24:34.616Z,4.00
2022-12-08T00:27:02.692Z,4.01
2022-12-08T00:29:29.481Z,3.93
2022-12-08T00:31:56.078Z,3.81
2022-12-08T00:34:22.886Z,3.84
2022-12-08T00:36:49.431Z,3.91
2022-12-08T00:39:17.482Z,3.95
2022-12-08T00:42:03.203Z,3.91
2022-12-08T00:44:29.738Z,3.83
2022-12-08T00:46:56.537Z,3.72
2022-12-08T00:49:23.464Z,3.71
2022-12-08T00:51:50.244Z,3.76
2022-12-08T00:54:18.312Z,3.85
2022-12-08T00:56:44.924Z,3.88
2022-12-08T00:59:11.448Z,3.75
2022-12-08T01:01:38.339Z,3.76
2022-12-08T01:04:06.928Z,3.78
2022-12-08T01:06:35.937Z,3.77
2022-12-08T01:09:06.086Z,3.82
2022-12-08T01:11:33.245Z,3.82
2022-12-08T01:13:59.736Z,3.82
2022-12-08T01:16:37.064Z,3.90
2022-12-08T01:19:04.316Z,3.98
2022-12-08T01:21:30.902Z,3.99
2022-12-08T01:24:00.932Z,3.96
2022-12-08T01:26:27.524Z,3.97
2022-12-08T01:28:54.186Z,3.93
2022-12-08T01:31:22.856Z,3.88
2022-12-08T01:33:50.719Z,3.90
2022-12-08T01:36:28.732Z,3.83
2022-12-08T01:38:59.128Z,3.79
2022-12-08T01:41:30.883Z,3.70
2022-12-08T01:44:10.767Z,3.79
2022-12-08T01:46:44.196Z,3.81
2022-12-08T01:49:30.508Z,3.82
2022-12-08T01:52:12.391Z,3.76
2022-12-08T01:54:51.448Z,3.79
2022-12-08T01:57:34.161Z,3.81
2022-12-08T02:00:15.780Z,3.70
2022-12-08T02:02:59.435Z,3.69
2022-12-08T02:05:31.881Z,3.78
2022-12-08T02:08:01.269Z,3.91
2022-12-08T02:10:32.937Z,3.91
2022-12-08T02:13:01.841Z,3.90
2022-12-08T02:15:41.707Z,3.75
2022-12-08T02:19:34.030Z,3.70
2022-12-08T02:22:40.027Z,3.72
2022-12-08T02:25:26.035Z,3.78
2022-12-08T02:28:32.633Z,3.79
2022-12-08T02:31:23.559Z,3.80
2022-12-08T02:34:26.641Z,3.77
2022-12-08T02:37:09.872Z,3.78
2022-12-08T02:40:04.215Z,3.84
2022-12-08T02:43:05.834Z,3.92
2022-12-08T02:45:43.454Z,3.73
2022-12-08T02:48:10.841Z,3.92
2022-12-08T02:50:37.399Z,3.78
2022-12-08T02:56:15.625Z,3.58
2022-12-08T02:59:09.509Z,3.51
2022-12-08T03:01:49.538Z,3.61
2022-12-08T03:04:46.641Z,3.70
2022-12-08T03:07:29.038Z,3.72
2022-12-08T03:10:05.213Z,3.70
2022-12-08T03:12:43.356Z,3.67
2022-12-08T03:15:16.560Z,3.57
2022-12-08T03:17:51.708Z,3.49
2022-12-08T03:20:23.609Z,3.35
2022-12-08T03:22:55.636Z,3.43
2022-12-08T03:25:25.986Z,3.50
2022-12-08T03:27:54.007Z,3.50
2022-12-08T03:30:20.632Z,3.61
2022-12-08T03:33:03.701Z,3.59
2022-12-08T03:35:35.551Z,3.74
2022-12-08T03:38:14.748Z,3.78
2022-12-08T03:40:42.536Z,3.74
2022-12-08T03:43:09.621Z,3.71
2022-12-08T03:45:36.209Z,3.67
2022-12-08T03:48:02.682Z,3.65
2022-12-08T03:50:29.174Z,3.65
2022-12-08T03:52:55.663Z,3.62
2022-12-08T03:55:22.216Z,3.62
2022-12-08T03:57:48.695Z,3.67
2022-12-08T04:00:17.007Z,3.73
2022-12-08T04:02:43.729Z,3.71
2022-12-08T04:05:10.852Z,3.71
2022-12-08T04:07:37.382Z,3.78
2022-12-08T04:10:05.568Z,3.79
2022-12-08T04:12:32.218Z,3.80
2022-12-08T04:14:58.640Z,3.75
2022-12-08T04:17:25.148Z,3.81
2022-12-08T04:19:51.635Z,3.85
2022-12-08T04:22:18.138Z,3.82
2022-12-08T04:24:44.570Z,3.81
2022-12-08T04:27:11.055Z,3.86
2022-12-08T04:29:37.497Z,3.85
2022-12-08T04:32:04.496Z,3.83
2022-12-08T04:34:30.943Z,3.70
2022-12-08T04:36:57.436Z,3.69
2022-12-08T04:39:24.101Z,3.76
2022-12-08T04:41:50.576Z,3.74
2022-12-08T04:44:17.188Z,3.79
2022-12-08T04:46:44.004Z,3.85
2022-12-08T04:49:10.733Z,3.79
2022-12-08T04:51:37.232Z,3.76
2022-12-08T04:54:03.733Z,3.75
2022-12-08T04:56:30.338Z,3.81
2022-12-08T04:58:56.825Z,3.83
2022-12-08T05:01:23.388Z,3.82
2022-12-08T05:03:50.002Z,3.75
2022-12-08T05:06:16.448Z,3.73
2022-12-08T05:08:43.688Z,3.72
2022-12-08T05:11:13.174Z,3.71
2022-12-08T05:13:39.912Z,3.72
2022-12-08T05:16:14.185Z,3.79
2022-12-08T05:18:42.845Z,3.88
2022-12-08T05:21:10.750Z,3.94
2022-12-08T05:23:37.265Z,3.95
2022-12-08T05:26:04.383Z,3.93
2022-12-08T05:28:46.096Z,3.86
2022-12-08T05:31:15.217Z,3.84
2022-12-08T05:33:42.321Z,3.84
2022-12-08T05:36:11.501Z,3.82
2022-12-08T05:38:38.226Z,3.93
2022-12-08T05:41:08.051Z,3.93
2022-12-08T05:43:34.604Z,3.81
2022-12-08T05:46:01.197Z,3.77
2022-12-08T05:48:27.852Z,3.74
2022-12-08T05:50:54.359Z,3.71
2022-12-08T05:53:21.142Z,3.74
2022-12-08T05:55:48.041Z,3.73
2022-12-08T05:58:18.000Z,3.90
2022-12-08T06:00:46.488Z,3.85
2022-12-08T06:03:15.301Z,3.79
2022-12-08T06:05:44.211Z,3.77
2022-12-08T06:08:11.836Z,3.71
2022-12-08T06:10:43.885Z,3.73
2022-12-08T06:13:11.140Z,3.67
2022-12-08T06:15:39.417Z,3.68
2022-12-08T06:18:07.203Z,3.61
2022-12-08T06:20:34.329Z,3.66
2022-12-08T06:23:00.856Z,3.68
2022-12-08T06:25:27.369Z,3.68
2022-12-08T06:27:53.888Z,3.63
2022-12-08T06:30:20.327Z,3.62
2022-12-08T06:32:47.052Z,3.65
2022-12-08T06:35:13.556Z,3.63
2022-12-08T06:37:40.039Z,3.62
2022-12-08T06:40:07.581Z,3.54
2022-12-08T06:42:49.546Z,3.46
2022-12-08T06:45:18.045Z,3.48
2022-12-08T06:47:44.689Z,3.54
2022-12-08T06:50:13.368Z,3.57
2022-12-08T06:52:51.605Z,3.43
2022-12-08T06:55:50.898Z,3.47
2022-12-08T06:58:12.628Z,3.43
2022-12-08T07:00:40.280Z,3.38
2022-12-08T07:03:08.668Z,3.44
2022-12-08T07:05:36.879Z,3.49
2022-12-08T07:08:06.866Z,3.48
2022-12-08T07:10:33.558Z,3.48
2022-12-08T07:13:00.090Z,3.51
2022-12-08T07:15:27.119Z,3.52
2022-12-08T07:17:59.610Z,3.49
2022-12-08T07:20:26.684Z,3.45
2022-12-08T07:22:53.271Z,3.48
2022-12-08T07:25:20.681Z,3.51
2022-12-08T07:27:47.975Z,3.52
2022-12-08T07:30:15.029Z,3.48
2022-12-08T07:32:41.806Z,3.48
2022-12-08T07:35:09.791Z,3.56
2022-12-08T07:37:38.240Z,3.59
2022-12-08T07:40:09.746Z,3.55
2022-12-08T07:42:36.344Z,3.49
2022-12-08T07:45:02.954Z,3.45
2022-12-08T07:47:29.453Z,3.45
2022-12-08T07:49:55.918Z,3.55
2022-12-08T07:52:23.233Z,3.58
2022-12-08T07:54:49.825Z,3.63
2022-12-08T07:57:17.262Z,3.68
2022-12-08T07:59:43.821Z,3.91
2022-12-08T08:02:24.740Z,3.72
2022-12-08T08:04:52.781Z,3.69
2022-12-08T08:07:19.463Z,3.67
2022-12-08T08:09:45.983Z,3.69
2022-12-08T08:15:04.805Z,3.58
2022-12-08T08:17:32.401Z,3.65
2022-12-08T08:19:59.437Z,3.55
2022-12-08T08:22:26.778Z,3.46
2022-12-08T08:24:54.239Z,3.46
2022-12-08T08:27:21.295Z,3.56
2022-12-08T08:29:47.761Z,3.66
2022-12-08T08:32:14.273Z,3.59
2022-12-08T08:34:40.746Z,3.59
2022-12-08T08:37:07.343Z,3.64
2022-12-08T08:39:33.896Z,3.76
2022-12-08T08:42:00.355Z,3.65
2022-12-08T08:44:26.818Z,3.54
2022-12-08T08:46:53.421Z,3.60
2022-12-08T08:49:20.187Z,3.69
2022-12-08T08:51:46.992Z,3.75
2022-12-08T08:54:13.485Z,3.66
2022-12-08T08:56:39.967Z,3.58
2022-12-08T08:59:06.437Z,3.60
2022-12-08T09:01:34.113Z,3.60
2022-12-08T09:04:01.263Z,3.63
2022-12-08T09:06:30.855Z,3.71
2022-12-08T09:08:57.393Z,3.63
2022-12-08T09:11:24.133Z,3.69
2022-12-08T09:13:53.248Z,3.73
2022-12-08T09:16:20.490Z,3.65
2022-12-08T09:18:49.274Z,3.69
2022-12-08T09:21:22.946Z,3.58
2022-12-08T09:23:51.578Z,3.53
2022-12-08T09:26:18.264Z,3.46
2022-12-08T09:28:46.451Z,3.49
2022-12-08T09:31:18.977Z,3.49
2022-12-08T09:33:47.542Z,3.58
2022-12-08T09:36:14.258Z,3.58
2022-12-08T09:38:41.233Z,3.65
2022-12-08T09:41:36.551Z,3.66
2022-12-08T09:44:33.273Z,3.58
2022-12-08T09:47:10.193Z,3.66
2022-12-08T09:49:50.508Z,3.57
2022-12-08T09:52:29.986Z,3.60
2022-12-08T09:55:04.384Z,3.56
2022-12-08T09:57:31.968Z,3.62
2022-12-08T10:00:05.007Z,3.65
2022-12-08T10:02:32.285Z,3.69
2022-12-08T10:04:59.473Z,3.66
2022-12-08T10:07:43.233Z,3.71
2022-12-08T10:10:39.093Z,3.65
2022-12-08T10:13:21.795Z,3.77
2022-12-08T10:16:29.556Z,3.62
2022-12-08T10:19:05.261Z,3.30
2022-12-08T10:21:32.459Z,3.53
2022-12-08T10:24:09.227Z,3.58
2022-12-08T10:26:35.739Z,3.67
2022-12-08T10:29:03.203Z,3.66
2022-12-08T10:31:32.099Z,3.72
2022-12-08T10:34:14.375Z,3.78
2022-12-08T10:36:58.918Z,3.81
2022-12-08T10:39:39.943Z,3.93
2022-12-08T10:42:08.318Z,3.96
2022-12-08T10:44:49.785Z,3.90
2022-12-08T10:47:21.035Z,3.97
2022-12-08T10:49:47.604Z,4.04
2022-12-08T10:52:25.261Z,4.10
2022-12-08T10:54:54.394Z,4.18
2022-12-08T10:57:26.243Z,4.15
2022-12-08T10:59:55.992Z,4.06
2022-12-08T11:02:23.170Z,4.02
2022-12-08T11:05:01.042Z,3.94
2022-12-08T11:07:28.400Z,3.98
2022-12-08T11:09:58.266Z,3.99
2022-12-08T11:12:29.837Z,4.00
2022-12-08T11:15:03.241Z,4.09
2022-12-08T11:17:41.153Z,4.12
2022-12-08T11:20:10.640Z,4.21
2022-12-08T11:22:52.150Z,4.32
2022-12-08T11:25:27.340Z,4.38
2022-12-08T11:27:59.044Z,4.41
2022-12-08T11:30:37.628Z,4.49
2022-12-08T11:33:18.176Z,4.50
2022-12-08T11:35:51.424Z,4.59
2022-12-08T11:38:23.735Z,4.46
2022-12-08T11:41:16.095Z,4.33
2022-12-08T11:43:59.023Z,4.39
2022-12-08T11:46:52.753Z,4.30
2022-12-08T11:49:20.586Z,4.43
2022-12-08T11:52:01.777Z,4.51
2022-12-08T11:54:35.201Z,4.57
2022-12-08T11:57:05.865Z,4.35
2022-12-08T11:59:44.310Z,4.31
2022-12-08T12:02:20.094Z,4.29
2022-12-08T12:05:05.150Z,4.38
2022-12-08T12:08:05.579Z,4.23
2022-12-08T12:11:13.029Z,4.35
2022-12-08T12:14:05.447Z,4.40
2022-12-08T12:17:05.614Z,4.39
2022-12-08T12:19:39.555Z,4.48
2022-12-08T12:22:19.301Z,4.47
2022-12-08T12:24:51.963Z,4.49
2022-12-08T12:27:32.765Z,4.47
2022-12-08T12:30:06.241Z,4.24
2022-12-08T12:32:52.635Z,4.20
2022-12-08T12:35:31.956Z,4.27
2022-12-08T12:38:27.466Z,4.24
2022-12-08T12:41:02.672Z,4.15
2022-12-08T12:43:36.614Z,4.12
2022-12-08T12:46:24.881Z,4.07
2022-12-08T12:48:52.420Z,3.99
2022-12-08T12:51:44.103Z,3.88
2022-12-08T12:54:26.327Z,3.88
2022-12-08T12:57:08.789Z,3.99
2022-12-08T12:59:40.489Z,3.86
2022-12-08T13:02:26.036Z,3.95
2022-12-08T13:05:26.283Z,3.82
2022-12-08T13:07:57.953Z,3.76
2022-12-08T13:10:57.766Z,3.87
2022-12-08T13:13:24.354Z,3.94
2022-12-08T13:15:55.857Z,3.97
2022-12-08T13:18:36.255Z,4.06
2022-12-08T13:21:08.606Z,4.07
2022-12-08T13:23:37.872Z,4.13
2022-12-08T13:26:17.951Z,4.15
2022-12-08T13:29:00.060Z,4.08
2022-12-08T13:31:51.863Z,3.93
2022-12-08T13:34:39.300Z,3.90
2022-12-08T13:37:11.775Z,3.59
2022-12-08T13:39:46.528Z,3.85
2022-12-08T13:42:13.013Z,3.90
2022-12-08T13:48:06.280Z,3.96
2022-12-08T13:51:23.734Z,3.61
2022-12-08T13:59:32.577Z,3.73
2022-12-08T14:02:15.983Z,3.83
2022-12-08T14:05:16.758Z,3.84
2022-12-08T14:07:34.628Z,3.86
2022-12-08T14:10:03.544Z,3.92
2022-12-08T14:12:31.548Z,3.74
2022-12-08T14:15:06.085Z,3.74
2022-12-08T14:17:33.745Z,3.86
2022-12-08T14:20:11.734Z,3.87
2022-12-08T14:22:41.170Z,3.83
2022-12-08T14:25:14.972Z,3.88
2022-12-08T14:27:42.490Z,3.83
2022-12-08T14:30:32.865Z,3.78
2022-12-08T14:33:04.087Z,3.79
2022-12-08T14:35:39.101Z,3.74
2022-12-08T14:38:14.570Z,3.75
2022-12-08T14:41:00.943Z,3.72
2022-12-08T14:43:30.140Z,3.66
2022-12-08T14:46:20.780Z,3.66
2022-12-08T14:48:47.338Z,3.67
2022-12-08T14:51:25.069Z,3.65
2022-12-08T14:54:06.352Z,3.50
2022-12-08T14:56:53.083Z,3.33
2022-12-08T14:59:27.189Z,3.32
2022-12-08T15:02:27.065Z,3.26
2022-12-08T15:05:16.209Z,3.31
2022-12-08T15:07:42.686Z,3.34
2022-12-08T15:10:14.925Z,3.25
2022-12-08T15:13:20.776Z,3.12
2022-12-08T15:15:55.637Z,3.14
2022-12-08T15:18:35.203Z,3.25
2022-12-08T15:21:08.871Z,3.30
2022-12-08T15:23:48.919Z,3.30
2022-12-08T15:26:25.804Z,3.25
2022-12-08T15:28:53.824Z,3.26
2022-12-08T15:31:20.809Z,3.21
2022-12-08T15:33:47.708Z,3.16
2022-12-08T15:36:14.155Z,3.05
2022-12-08T15:38:40.710Z,3.04
2022-12-08T15:41:11.495Z,3.00
2022-12-08T15:43:41.129Z,3.10
2022-12-08T15:46:07.561Z,3.13
2022-12-08T15:48:34.053Z,3.06
2022-12-08T15:51:00.670Z,3.08
2022-12-08T15:53:27.212Z,3.12
2022-12-08T15:56:25.664Z,3.07
2022-12-08T15:58:57.616Z,3.03
2022-12-08T16:01:26.022Z,2.99
2022-12-08T16:07:20.278Z,2.89
2022-12-08T16:09:38.282Z,2.85
2022-12-08T16:13:13.360Z,2.88
2022-12-08T16:18:07.596Z,2.84
2022-12-08T16:23:41.665Z,2.98
2022-12-08T16:26:28.329Z,2.93
2022-12-08T16:28:55.503Z,2.88
2022-12-08T16:31:23.366Z,2.83
2022-12-08T16:33:50.094Z,2.82
2022-12-08T16:36:16.610Z,2.85
2022-12-08T16:38:43.115Z,2.83
2022-12-08T16:41:43.384Z,2.74
2022-12-08T16:44:09.825Z,2.69
2022-12-08T16:46:36.942Z,2.69
2022-12-08T16:49:04.572Z,2.71
2022-12-08T16:51:31.048Z,2.76
2022-12-08T16:53:58.317Z,2.72
2022-12-08T16:56:32.158Z,2.65
2022-12-08T16:58:59.559Z,2.61
2022-12-08T17:01:26.250Z,2.63
2022-12-08T17:04:14.715Z,2.71
2022-12-08T17:06:39.523Z,2.59
2022-12-08T17:09:06.071Z,2.58
2022-12-08T17:11:36.231Z,2.50
2022-12-08T17:14:05.790Z,2.46
2022-12-08T17:16:32.366Z,2.34
2022-12-08T17:18:58.918Z,2.34
2022-12-08T17:21:25.593Z,2.21
2022-12-08T17:23:52.078Z,2.15
2022-12-08T17:26:18.565Z,2.14
2022-12-08T17:28:59.946Z,2.19
2022-12-08T17:31:29.906Z,2.18
2022-12-08T17:34:04.434Z,2.02
2022-12-08T17:36:31.678Z,2.02
2022-12-08T17:39:00.387Z,1.99
2022-12-08T17:41:28.284Z,1.94
2022-12-08T17:43:55.423Z,1.85
2022-12-08T17:46:23.293Z,1.70
2022-12-08T17:48:49.992Z,1.53
2022-12-08T17:51:17.458Z,1.59
2022-12-08T17:53:44.336Z,1.42
2022-12-08T17:56:21.189Z,1.12
2022-12-08T17:58:54.373Z,0.98
2022-12-08T18:01:22.206Z,1.01
2022-12-08T18:03:48.719Z,1.07
2022-12-08T18:06:17.317Z,1.05
2022-12-08T18:08:43.868Z,1.09
2022-12-08T18:11:14.876Z,1.14
2022-12-08T18:13:41.530Z,1.20
2022-12-08T18:16:08.079Z,1.17
2022-12-08T18:18:34.556Z,1.06
2022-12-08T18:21:01.214Z,0.91
2022-12-08T18:23:27.886Z,0.81
2022-12-08T18:25:54.428Z,0.81
2022-12-08T18:28:20.967Z,0.86
2022-12-08T18:30:47.555Z,0.85
2022-12-08T18:33:14.102Z,0.83
2022-12-08T18:35:40.640Z,0.93
2022-12-08T18:38:07.551Z,1.03
2022-12-08T18:40:34.063Z,1.13
2022-12-08T18:43:00.519Z,1.22
2022-12-08T18:45:27.052Z,1.28
2022-12-08T18:47:53.611Z,1.24
2022-12-08T18:50:20.315Z,1.14
2022-12-08T18:52:47.236Z,1.16
2022-12-08T18:55:14.846Z,1.19
2022-12-08T18:57:43.165Z,1.14
2022-12-08T19:00:14.974Z,1.10
2022-12-08T19:02:42.945Z,1.07
2022-12-08T19:05:12.203Z,1.04
2022-12-08T19:07:38.877Z,1.04
2022-12-08T19:10:07.131Z,0.99
2022-12-08T19:12:34.150Z,0.72
2022-12-08T19:15:00.727Z,0.64
2022-12-08T19:17:29.503Z,0.69
2022-12-08T19:19:55.949Z,0.67
2022-12-08T19:22:22.400Z,0.62
2022-12-08T19:24:48.930Z,0.61
2022-12-08T19:27:15.479Z,0.47
2022-12-08T19:29:41.918Z,0.27
2022-12-08T19:32:08.354Z,0.18
2022-12-08T19:34:34.859Z,0.08
2022-12-08T19:37:01.341Z,0.07
2022-12-08T19:39:46.687Z,0.16
2022-12-08T19:42:36.896Z,0.31
2022-12-08T19:45:18.078Z,0.43
2022-12-08T19:47:44.807Z,0.55
2022-12-08T19:50:32.923Z,0.63
2022-12-08T19:53:00.154Z,0.64
2022-12-08T19:55:28.274Z,0.71
2022-12-08T19:57:56.552Z,0.69
2022-12-08T20:00:23.303Z,0.72
2022-12-08T20:02:49.935Z,0.61
2022-12-08T20:05:16.600Z,0.49
2022-12-08T20:07:43.725Z,0.42
2022-12-08T20:10:22.757Z,0.32
2022-12-08T20:12:49.360Z,0.30
2022-12-08T20:15:15.999Z,0.23
2022-12-08T20:17:43.316Z,0.22
2022-12-08T20:20:13.052Z,0.18
2022-12-08T20:22:39.888Z,0.21
2022-12-08T20:25:07.339Z,0.25
2022-12-08T20:27:33.816Z,0.31
2022-12-08T20:30:00.269Z,0.49
2022-12-08T20:32:26.788Z,0.67
2022-12-08T20:34:53.298Z,0.80
2022-12-08T20:37:19.842Z,0.89
2022-12-08T20:39:46.371Z,0.74
2022-12-08T20:42:13.718Z,0.74
2022-12-08T20:44:44.123Z,0.79
2022-12-08T20:47:12.520Z,0.93
2022-12-08T20:49:39.369Z,1.01
2022-12-08T20:52:06.117Z,0.96
2022-12-08T20:54:33.128Z,0.95
2022-12-08T20:57:00.228Z,0.86
2022-12-08T20:59:27.428Z,0.83
2022-12-08T21:01:54.475Z,0.86
2022-12-08T21:04:22.716Z,0.88
2022-12-08T21:06:50.320Z,0.76
2022-12-08T21:09:17.114Z,0.77
2022-12-08T21:11:44.255Z,0.79
2022-12-08T21:14:11.110Z,0.99
2022-12-08T21:16:38.790Z,1.17
2022-12-08T21:19:06.226Z,1.20
2022-12-08T21:21:33.240Z,1.28
2022-12-08T21:23:59.786Z,1.21
2022-12-08T21:26:26.920Z,1.29
2022-12-08T21:28:55.006Z,1.43
2022-12-08T21:31:22.788Z,1.55
2022-12-08T21:33:49.371Z,1.61
2022-12-08T21:36:20.429Z,1.55
2022-12-08T21:38:48.406Z,1.34
2022-12-08T21:41:42.011Z,1.30
2022-12-08T21:44:11.648Z,1.34
2022-12-08T21:46:38.573Z,1.49
2022-12-08T21:49:05.423Z,1.55
2022-12-08T21:51:33.534Z,1.60
2022-12-08T21:54:00.102Z,1.60
2022-12-08T21:56:26.844Z,1.63
2022-12-08T21:58:54.369Z,1.67
2022-12-08T22:01:21.061Z,1.71
2022-12-08T22:03:47.931Z,1.72
2022-12-08T22:06:14.862Z,1.79
2022-12-08T22:08:42.323Z,1.81
2022-12-08T22:11:11.455Z,1.82
2022-12-08T22:13:42.139Z,1.82
2022-12-08T22:16:12.230Z,1.77
2022-12-08T22:18:38.897Z,1.70
2022-12-08T22:21:15.068Z,1.52
2022-12-08T22:23:41.793Z,1.49
2022-12-08T22:26:09.869Z,1.62
2022-12-08T22:28:40.235Z,1.73
2022-12-08T22:31:12.933Z,1.75
2022-12-08T22:33:41.411Z,1.76
2022-12-08T22:36:14.790Z,1.83
2022-12-08T22:38:41.677Z,1.87
2022-12-08T22:41:08.376Z,1.91
2022-12-08T22:43:35.798Z,1.64
2022-12-08T22:46:15.002Z,1.53
2022-12-08T22:48:41.924Z,1.52
2022-12-08T22:51:09.324Z,1.61
2022-12-08T22:53:36.675Z,1.71
2022-12-08T22:56:09.561Z,1.74
2022-12-08T22:58:37.869Z,1.87
2022-12-08T23:01:05.312Z,1.89
2022-12-08T23:03:32.790Z,1.94
2022-12-08T23:05:59.515Z,1.97
2022-12-08T23:08:26.144Z,1.95
2022-12-08T23:10:54.315Z,1.89
2022-12-08T23:13:21.961Z,1.94
2022-12-08T23:15:48.599Z,1.99
2022-12-08T23:18:19.160Z,2.04
2022-12-08T23:20:46.492Z,2.09
2022-12-08T23:23:14.394Z,2.10
2022-12-08T23:25:42.718Z,1.98
2022-12-08T23:28:10.731Z,1.91
2022-12-08T23:30:40.135Z,1.90
2022-12-08T23:33:06.924Z,2.00
2022-12-08T23:35:33.650Z,2.06
2022-12-08T23:38:00.340Z,1.94
2022-12-08T23:40:27.117Z,1.85
2022-12-08T23:42:53.590Z,1.74
2022-12-08T23:45:20.276Z,1.54
2022-12-08T23:47:46.786Z,1.43
2022-12-08T23:50:13.324Z,1.39
2022-12-08T23:52:40.230Z,1.50
2022-12-08T23:55:07.916Z,1.55
2022-12-08T23:57:38.583Z,1.65
